sensor_id;sensor_type;location;lat;lon;timestamp;P1;durP1;ratioP1;P2;durP2;ratioP2
11921;SDS011;6021;51.182;3.160;2023-04-22T00:01:21;20.67;;;18.63;;
11921;SDS011;6021;51.182;3.160;2023-04-22T00:03:50;21.67;;;19.50;;
11921;SDS011;6021;51.182;3.160;2023-04-22T00:06:19;19.27;;;17.27;;
11921;SDS011;6021;51.182;3.160;2023-04-22T00:08:47;19.03;;;17.20;;
11921;SDS011;6021;51.182;3.160;2023-04-22T00:11:16;25.73;;;20.57;;
11921;SDS011;6021;51.182;3.160;2023-04-22T00:13:44;23.80;;;21.40;;
11921;SDS011;6021;51.182;3.160;2023-04-22T00:16:13;29.37;;;23.70;;
11921;SDS011;6021;51.182;3.160;2023-04-22T00:18:42;27.00;;;22.83;;
11921;SDS011;6021;51.182;3.160;2023-04-22T00:21:10;27.13;;;24.07;;
11921;SDS011;6021;51.182;3.160;2023-04-22T00:23:39;26.10;;;22.87;;
11921;SDS011;6021;51.182;3.160;2023-04-22T00:26:07;26.77;;;22.07;;
11921;SDS011;6021;51.182;3.160;2023-04-22T00:28:36;38.37;;;23.77;;
11921;SDS011;6021;51.182;3.160;2023-04-22T00:31:05;38.30;;;25.40;;
11921;SDS011;6021;51.182;3.160;2023-04-22T00:33:33;28.47;;;22.17;;
11921;SDS011;6021;51.182;3.160;2023-04-22T00:36:01;31.70;;;20.73;;
11921;SDS011;6021;51.182;3.160;2023-04-22T00:38:30;40.27;;;20.87;;
11921;SDS011;6021;51.182;3.160;2023-04-22T00:40:59;28.83;;;20.70;;
11921;SDS011;6021;51.182;3.160;2023-04-22T00:43:28;42.77;;;20.30;;
11921;SDS011;6021;51.182;3.160;2023-04-22T00:45:57;40.60;;;20.87;;
11921;SDS011;6021;51.182;3.160;2023-04-22T00:48:26;31.03;;;19.90;;
11921;SDS011;6021;51.182;3.160;2023-04-22T00:50:56;52.30;;;23.97;;
11921;SDS011;6021;51.182;3.160;2023-04-22T00:53:25;31.73;;;20.50;;
11921;SDS011;6021;51.182;3.160;2023-04-22T00:55:53;54.00;;;22.17;;
11921;SDS011;6021;51.182;3.160;2023-04-22T00:58:22;42.60;;;23.03;;
11921;SDS011;6021;51.182;3.160;2023-04-22T01:00:58;61.17;;;23.43;;
11921;SDS011;6021;51.182;3.160;2023-04-22T01:19:49;55.97;;;24.60;;
11921;SDS011;6021;51.182;3.160;2023-04-22T01:22:21;39.77;;;24.30;;
11921;SDS011;6021;51.182;3.160;2023-04-22T01:25:03;85.53;;;25.80;;
11921;SDS011;6021;51.182;3.160;2023-04-22T01:27:31;75.70;;;26.50;;
11921;SDS011;6021;51.182;3.160;2023-04-22T01:29:59;71.93;;;24.77;;
11921;SDS011;6021;51.182;3.160;2023-04-22T01:32:28;83.17;;;26.40;;
11921;SDS011;6021;51.182;3.160;2023-04-22T01:34:58;124.63;;;26.17;;
11921;SDS011;6021;51.182;3.160;2023-04-22T01:37:36;45.07;;;22.47;;
11921;SDS011;6021;51.182;3.160;2023-04-22T01:40:04;51.47;;;22.97;;
11921;SDS011;6021;51.182;3.160;2023-04-22T01:42:36;57.63;;;22.07;;
11921;SDS011;6021;51.182;3.160;2023-04-22T01:45:05;49.43;;;28.13;;
11921;SDS011;6021;51.182;3.160;2023-04-22T01:47:34;115.30;;;29.70;;
11921;SDS011;6021;51.182;3.160;2023-04-22T01:50:03;47.37;;;26.77;;
11921;SDS011;6021;51.182;3.160;2023-04-22T01:52:32;79.40;;;31.53;;
11921;SDS011;6021;51.182;3.160;2023-04-22T01:55:02;43.33;;;23.83;;
11921;SDS011;6021;51.182;3.160;2023-04-22T01:57:30;80.23;;;24.47;;
11921;SDS011;6021;51.182;3.160;2023-04-22T01:59:59;77.23;;;24.43;;
11921;SDS011;6021;51.182;3.160;2023-04-22T02:02:27;137.90;;;34.73;;
11921;SDS011;6021;51.182;3.160;2023-04-22T02:04:55;149.47;;;33.83;;
11921;SDS011;6021;51.182;3.160;2023-04-22T02:07:24;54.40;;;26.07;;
11921;SDS011;6021;51.182;3.160;2023-04-22T02:09:52;74.20;;;26.93;;
11921;SDS011;6021;51.182;3.160;2023-04-22T02:12:23;153.47;;;32.80;;
11921;SDS011;6021;51.182;3.160;2023-04-22T02:14:51;43.53;;;24.50;;
11921;SDS011;6021;51.182;3.160;2023-04-22T02:17:19;56.03;;;25.43;;
11921;SDS011;6021;51.182;3.160;2023-04-22T02:19:47;36.93;;;20.70;;
11921;SDS011;6021;51.182;3.160;2023-04-22T02:22:16;99.33;;;30.23;;
11921;SDS011;6021;51.182;3.160;2023-04-22T02:24:44;40.90;;;26.13;;
11921;SDS011;6021;51.182;3.160;2023-04-22T02:27:13;25.87;;;22.00;;
11921;SDS011;6021;51.182;3.160;2023-04-22T02:29:41;25.70;;;22.27;;
11921;SDS011;6021;51.182;3.160;2023-04-22T02:32:09;34.40;;;24.00;;
11921;SDS011;6021;51.182;3.160;2023-04-22T02:34:38;55.10;;;27.87;;
11921;SDS011;6021;51.182;3.160;2023-04-22T02:37:07;272.83;;;37.47;;
11921;SDS011;6021;51.182;3.160;2023-04-22T02:39:35;185.83;;;32.03;;
11921;SDS011;6021;51.182;3.160;2023-04-22T02:42:03;64.50;;;25.53;;
11921;SDS011;6021;51.182;3.160;2023-04-22T02:44:32;30.37;;;25.33;;
11921;SDS011;6021;51.182;3.160;2023-04-22T02:47:00;44.70;;;25.07;;
11921;SDS011;6021;51.182;3.160;2023-04-22T02:49:29;58.73;;;29.67;;
11921;SDS011;6021;51.182;3.160;2023-04-22T02:51:57;29.60;;;24.57;;
11921;SDS011;6021;51.182;3.160;2023-04-22T02:54:26;44.40;;;27.43;;
11921;SDS011;6021;51.182;3.160;2023-04-22T02:56:54;112.83;;;32.80;;
11921;SDS011;6021;51.182;3.160;2023-04-22T02:59:23;55.20;;;28.57;;
11921;SDS011;6021;51.182;3.160;2023-04-22T03:01:51;68.10;;;30.47;;
11921;SDS011;6021;51.182;3.160;2023-04-22T03:04:21;106.87;;;32.03;;
11921;SDS011;6021;51.182;3.160;2023-04-22T03:06:51;70.23;;;32.23;;
11921;SDS011;6021;51.182;3.160;2023-04-22T03:09:19;49.00;;;28.97;;
11921;SDS011;6021;51.182;3.160;2023-04-22T03:11:47;46.80;;;27.30;;
11921;SDS011;6021;51.182;3.160;2023-04-22T03:14:16;44.60;;;26.33;;
11921;SDS011;6021;51.182;3.160;2023-04-22T03:16:44;35.97;;;25.63;;
11921;SDS011;6021;51.182;3.160;2023-04-22T03:19:12;41.63;;;26.87;;
11921;SDS011;6021;51.182;3.160;2023-04-22T03:21:41;47.23;;;28.87;;
11921;SDS011;6021;51.182;3.160;2023-04-22T03:24:10;85.73;;;34.83;;
11921;SDS011;6021;51.182;3.160;2023-04-22T03:26:38;81.97;;;36.40;;
11921;SDS011;6021;51.182;3.160;2023-04-22T03:29:07;140.10;;;42.27;;
11921;SDS011;6021;51.182;3.160;2023-04-22T03:31:35;535.23;;;58.47;;
11921;SDS011;6021;51.182;3.160;2023-04-22T03:34:04;73.93;;;36.90;;
11921;SDS011;6021;51.182;3.160;2023-04-22T03:36:32;69.80;;;36.23;;
11921;SDS011;6021;51.182;3.160;2023-04-22T03:39:00;186.27;;;41.67;;
11921;SDS011;6021;51.182;3.160;2023-04-22T03:41:29;218.70;;;43.10;;
11921;SDS011;6021;51.182;3.160;2023-04-22T03:43:57;150.87;;;37.67;;
11921;SDS011;6021;51.182;3.160;2023-04-22T03:46:26;791.80;;;69.77;;
11921;SDS011;6021;51.182;3.160;2023-04-22T03:48:54;89.00;;;36.73;;
11921;SDS011;6021;51.182;3.160;2023-04-22T03:51:22;48.87;;;33.50;;
11921;SDS011;6021;51.182;3.160;2023-04-22T03:53:51;280.10;;;46.73;;
11921;SDS011;6021;51.182;3.160;2023-04-22T03:56:19;293.60;;;49.67;;
11921;SDS011;6021;51.182;3.160;2023-04-22T03:58:49;193.03;;;41.87;;
11921;SDS011;6021;51.182;3.160;2023-04-22T04:01:18;387.13;;;51.90;;
11921;SDS011;6021;51.182;3.160;2023-04-22T04:03:46;192.00;;;42.13;;
11921;SDS011;6021;51.182;3.160;2023-04-22T04:06:14;59.80;;;34.97;;
11921;SDS011;6021;51.182;3.160;2023-04-22T04:08:43;161.00;;;41.73;;
11921;SDS011;6021;51.182;3.160;2023-04-22T04:11:12;207.50;;;41.13;;
11921;SDS011;6021;51.182;3.160;2023-04-22T04:13:40;255.30;;;45.50;;
11921;SDS011;6021;51.182;3.160;2023-04-22T04:16:09;234.43;;;45.00;;
11921;SDS011;6021;51.182;3.160;2023-04-22T04:18:37;141.73;;;36.90;;
11921;SDS011;6021;51.182;3.160;2023-04-22T04:21:06;46.10;;;28.10;;
11921;SDS011;6021;51.182;3.160;2023-04-22T04:23:34;93.53;;;29.43;;
11921;SDS011;6021;51.182;3.160;2023-04-22T04:26:03;77.30;;;28.23;;
11921;SDS011;6021;51.182;3.160;2023-04-22T04:28:31;66.87;;;28.57;;
11921;SDS011;6021;51.182;3.160;2023-04-22T04:31:01;90.77;;;30.77;;
11921;SDS011;6021;51.182;3.160;2023-04-22T04:33:29;53.03;;;28.33;;
11921;SDS011;6021;51.182;3.160;2023-04-22T04:35:58;118.93;;;32.77;;
11921;SDS011;6021;51.182;3.160;2023-04-22T04:38:27;95.27;;;32.33;;
11921;SDS011;6021;51.182;3.160;2023-04-22T04:40:56;84.80;;;31.13;;
11921;SDS011;6021;51.182;3.160;2023-04-22T04:43:24;79.80;;;30.80;;
11921;SDS011;6021;51.182;3.160;2023-04-22T04:45:52;65.13;;;29.33;;
11921;SDS011;6021;51.182;3.160;2023-04-22T04:48:21;100.93;;;30.47;;
11921;SDS011;6021;51.182;3.160;2023-04-22T04:50:52;107.67;;;31.23;;
11921;SDS011;6021;51.182;3.160;2023-04-22T04:53:21;409.83;;;49.73;;
11921;SDS011;6021;51.182;3.160;2023-04-22T04:55:49;135.30;;;38.37;;
11921;SDS011;6021;51.182;3.160;2023-04-22T04:58:17;76.07;;;31.97;;
11921;SDS011;6021;51.182;3.160;2023-04-22T05:00:46;102.90;;;33.37;;
11921;SDS011;6021;51.182;3.160;2023-04-22T05:03:14;78.43;;;32.10;;
11921;SDS011;6021;51.182;3.160;2023-04-22T05:05:44;146.40;;;39.73;;
11921;SDS011;6021;51.182;3.160;2023-04-22T05:08:14;242.20;;;43.83;;
11921;SDS011;6021;51.182;3.160;2023-04-22T05:10:49;100.50;;;34.53;;
11921;SDS011;6021;51.182;3.160;2023-04-22T05:13:17;99.07;;;38.70;;
11921;SDS011;6021;51.182;3.160;2023-04-22T05:15:45;137.10;;;39.30;;
11921;SDS011;6021;51.182;3.160;2023-04-22T05:18:14;173.53;;;43.27;;
11921;SDS011;6021;51.182;3.160;2023-04-22T05:20:42;51.20;;;30.70;;
11921;SDS011;6021;51.182;3.160;2023-04-22T05:23:11;135.03;;;33.97;;
11921;SDS011;6021;51.182;3.160;2023-04-22T05:25:39;237.17;;;41.17;;
11921;SDS011;6021;51.182;3.160;2023-04-22T05:28:08;86.00;;;34.87;;
11921;SDS011;6021;51.182;3.160;2023-04-22T05:30:37;57.03;;;33.10;;
11921;SDS011;6021;51.182;3.160;2023-04-22T05:33:05;691.23;;;60.17;;
11921;SDS011;6021;51.182;3.160;2023-04-22T05:35:35;323.67;;;45.97;;
11921;SDS011;6021;51.182;3.160;2023-04-22T05:38:04;308.27;;;44.40;;
11921;SDS011;6021;51.182;3.160;2023-04-22T05:40:33;692.43;;;57.73;;
11921;SDS011;6021;51.182;3.160;2023-04-22T05:43:01;815.57;;;65.57;;
11921;SDS011;6021;51.182;3.160;2023-04-22T05:45:30;657.80;;;58.17;;
11921;SDS011;6021;51.182;3.160;2023-04-22T05:47:58;71.83;;;36.97;;
11921;SDS011;6021;51.182;3.160;2023-04-22T05:50:26;174.63;;;41.10;;
11921;SDS011;6021;51.182;3.160;2023-04-22T05:52:55;387.57;;;50.70;;
11921;SDS011;6021;51.182;3.160;2023-04-22T05:55:23;403.90;;;52.27;;
11921;SDS011;6021;51.182;3.160;2023-04-22T05:57:52;530.90;;;59.47;;
11921;SDS011;6021;51.182;3.160;2023-04-22T06:00:20;673.87;;;60.47;;
11921;SDS011;6021;51.182;3.160;2023-04-22T06:02:49;99.17;;;40.77;;
11921;SDS011;6021;51.182;3.160;2023-04-22T06:05:23;142.80;;;43.47;;
11921;SDS011;6021;51.182;3.160;2023-04-22T06:07:51;152.87;;;43.83;;
11921;SDS011;6021;51.182;3.160;2023-04-22T06:10:20;172.33;;;46.17;;
11921;SDS011;6021;51.182;3.160;2023-04-22T06:12:57;73.80;;;39.90;;
11921;SDS011;6021;51.182;3.160;2023-04-22T06:15:27;132.23;;;46.60;;
11921;SDS011;6021;51.182;3.160;2023-04-22T06:17:55;143.70;;;49.60;;
11921;SDS011;6021;51.182;3.160;2023-04-22T06:20:24;146.87;;;47.57;;
11921;SDS011;6021;51.182;3.160;2023-04-22T06:22:52;135.83;;;48.57;;
11921;SDS011;6021;51.182;3.160;2023-04-22T06:25:22;368.83;;;55.47;;
11921;SDS011;6021;51.182;3.160;2023-04-22T06:27:50;113.27;;;45.87;;
11921;SDS011;6021;51.182;3.160;2023-04-22T06:30:19;87.17;;;40.73;;
11921;SDS011;6021;51.182;3.160;2023-04-22T06:32:47;71.17;;;36.73;;
11921;SDS011;6021;51.182;3.160;2023-04-22T06:35:16;67.87;;;37.40;;
11921;SDS011;6021;51.182;3.160;2023-04-22T06:37:45;91.57;;;44.37;;
11921;SDS011;6021;51.182;3.160;2023-04-22T06:40:14;61.57;;;38.90;;
11921;SDS011;6021;51.182;3.160;2023-04-22T06:42:42;46.93;;;34.77;;
11921;SDS011;6021;51.182;3.160;2023-04-22T06:45:11;71.50;;;39.37;;
11921;SDS011;6021;51.182;3.160;2023-04-22T06:47:39;88.50;;;42.70;;
11921;SDS011;6021;51.182;3.160;2023-04-22T06:50:08;58.07;;;36.07;;
11921;SDS011;6021;51.182;3.160;2023-04-22T06:52:36;78.20;;;38.57;;
11921;SDS011;6021;51.182;3.160;2023-04-22T06:55:08;49.60;;;35.10;;
11921;SDS011;6021;51.182;3.160;2023-04-22T06:57:37;80.83;;;41.43;;
11921;SDS011;6021;51.182;3.160;2023-04-22T07:00:05;86.83;;;43.30;;
11921;SDS011;6021;51.182;3.160;2023-04-22T07:02:34;52.50;;;37.27;;
11921;SDS011;6021;51.182;3.160;2023-04-22T07:05:03;56.23;;;40.30;;
11921;SDS011;6021;51.182;3.160;2023-04-22T07:07:31;47.13;;;36.40;;
11921;SDS011;6021;51.182;3.160;2023-04-22T07:10:00;53.73;;;38.33;;
11921;SDS011;6021;51.182;3.160;2023-04-22T07:12:28;51.27;;;38.63;;
11921;SDS011;6021;51.182;3.160;2023-04-22T07:14:57;46.20;;;38.63;;
11921;SDS011;6021;51.182;3.160;2023-04-22T07:17:25;41.43;;;36.13;;
11921;SDS011;6021;51.182;3.160;2023-04-22T07:19:54;40.07;;;29.13;;
11921;SDS011;6021;51.182;3.160;2023-04-22T07:22:22;51.10;;;40.30;;
11921;SDS011;6021;51.182;3.160;2023-04-22T07:24:50;50.20;;;37.50;;
11921;SDS011;6021;51.182;3.160;2023-04-22T07:27:19;58.87;;;41.63;;
11921;SDS011;6021;51.182;3.160;2023-04-22T07:29:47;57.03;;;41.13;;
11921;SDS011;6021;51.182;3.160;2023-04-22T07:32:18;47.53;;;36.50;;
11921;SDS011;6021;51.182;3.160;2023-04-22T07:34:46;56.87;;;41.10;;
11921;SDS011;6021;51.182;3.160;2023-04-22T07:37:17;50.90;;;38.97;;
11921;SDS011;6021;51.182;3.160;2023-04-22T07:39:46;48.60;;;38.33;;
11921;SDS011;6021;51.182;3.160;2023-04-22T07:42:15;46.27;;;36.50;;
11921;SDS011;6021;51.182;3.160;2023-04-22T07:44:43;44.70;;;35.50;;
11921;SDS011;6021;51.182;3.160;2023-04-22T07:47:13;53.73;;;39.40;;
11921;SDS011;6021;51.182;3.160;2023-04-22T07:49:42;40.37;;;34.77;;
11921;SDS011;6021;51.182;3.160;2023-04-22T07:52:16;40.93;;;33.87;;
11921;SDS011;6021;51.182;3.160;2023-04-22T07:54:40;45.43;;;36.67;;
11921;SDS011;6021;51.182;3.160;2023-04-22T07:57:09;39.87;;;33.20;;
11921;SDS011;6021;51.182;3.160;2023-04-22T07:59:39;33.27;;;29.13;;
11921;SDS011;6021;51.182;3.160;2023-04-22T08:02:11;35.33;;;28.30;;
11921;SDS011;6021;51.182;3.160;2023-04-22T08:04:40;34.07;;;29.20;;
11921;SDS011;6021;51.182;3.160;2023-04-22T08:07:12;36.37;;;30.77;;
11921;SDS011;6021;51.182;3.160;2023-04-22T08:09:48;35.57;;;29.80;;
11921;SDS011;6021;51.182;3.160;2023-04-22T08:12:21;36.17;;;30.23;;
11921;SDS011;6021;51.182;3.160;2023-04-22T08:15:06;35.03;;;28.77;;
11921;SDS011;6021;51.182;3.160;2023-04-22T08:17:36;34.37;;;30.27;;
11921;SDS011;6021;51.182;3.160;2023-04-22T08:20:09;38.60;;;33.20;;
11921;SDS011;6021;51.182;3.160;2023-04-22T08:22:38;35.87;;;31.53;;
11921;SDS011;6021;51.182;3.160;2023-04-22T08:25:08;34.97;;;30.77;;
11921;SDS011;6021;51.182;3.160;2023-04-22T08:27:38;34.83;;;31.13;;
11921;SDS011;6021;51.182;3.160;2023-04-22T08:30:09;33.83;;;29.93;;
11921;SDS011;6021;51.182;3.160;2023-04-22T08:32:38;32.63;;;29.17;;
11921;SDS011;6021;51.182;3.160;2023-04-22T08:35:12;35.70;;;31.80;;
11921;SDS011;6021;51.182;3.160;2023-04-22T08:37:40;37.33;;;32.40;;
11921;SDS011;6021;51.182;3.160;2023-04-22T08:40:12;33.00;;;29.50;;
11921;SDS011;6021;51.182;3.160;2023-04-22T08:42:43;34.83;;;31.03;;
11921;SDS011;6021;51.182;3.160;2023-04-22T08:45:13;31.63;;;28.33;;
11921;SDS011;6021;51.182;3.160;2023-04-22T08:47:41;36.00;;;32.30;;
11921;SDS011;6021;51.182;3.160;2023-04-22T08:50:10;38.17;;;33.97;;
11921;SDS011;6021;51.182;3.160;2023-04-22T08:52:38;39.07;;;33.80;;
11921;SDS011;6021;51.182;3.160;2023-04-22T08:55:09;38.67;;;32.80;;
11921;SDS011;6021;51.182;3.160;2023-04-22T08:57:37;38.63;;;32.50;;
11921;SDS011;6021;51.182;3.160;2023-04-22T09:00:08;43.03;;;35.57;;
11921;SDS011;6021;51.182;3.160;2023-04-22T09:02:42;43.93;;;35.00;;
11921;SDS011;6021;51.182;3.160;2023-04-22T09:05:09;37.23;;;31.80;;
11921;SDS011;6021;51.182;3.160;2023-04-22T09:07:40;39.77;;;34.57;;
11921;SDS011;6021;51.182;3.160;2023-04-22T09:10:09;39.87;;;33.37;;
11921;SDS011;6021;51.182;3.160;2023-04-22T09:12:37;35.97;;;31.43;;
11921;SDS011;6021;51.182;3.160;2023-04-22T09:15:07;33.00;;;29.40;;
11921;SDS011;6021;51.182;3.160;2023-04-22T09:17:36;26.10;;;20.90;;
11921;SDS011;6021;51.182;3.160;2023-04-22T09:20:05;29.53;;;23.43;;
11921;SDS011;6021;51.182;3.160;2023-04-22T09:22:38;33.03;;;24.80;;
11921;SDS011;6021;51.182;3.160;2023-04-22T09:25:18;31.03;;;23.60;;
11921;SDS011;6021;51.182;3.160;2023-04-22T09:27:51;35.93;;;31.23;;
11921;SDS011;6021;51.182;3.160;2023-04-22T09:30:25;39.80;;;30.90;;
11921;SDS011;6021;51.182;3.160;2023-04-22T09:32:59;40.13;;;31.10;;
11921;SDS011;6021;51.182;3.160;2023-04-22T09:38:20;43.57;;;33.83;;
11921;SDS011;6021;51.182;3.160;2023-04-22T09:40:48;40.53;;;33.00;;
11921;SDS011;6021;51.182;3.160;2023-04-22T09:43:19;32.93;;;28.53;;
11921;SDS011;6021;51.182;3.160;2023-04-22T09:45:53;47.50;;;36.53;;
11921;SDS011;6021;51.182;3.160;2023-04-22T09:48:23;78.27;;;41.37;;
11921;SDS011;6021;51.182;3.160;2023-04-22T09:50:51;43.90;;;36.83;;
11921;SDS011;6021;51.182;3.160;2023-04-22T09:53:20;39.97;;;35.43;;
11921;SDS011;6021;51.182;3.160;2023-04-22T09:55:52;51.83;;;41.27;;
11921;SDS011;6021;51.182;3.160;2023-04-22T09:58:21;44.20;;;37.30;;
11921;SDS011;6021;51.182;3.160;2023-04-22T10:00:54;58.43;;;43.83;;
11921;SDS011;6021;51.182;3.160;2023-04-22T10:03:31;61.63;;;45.50;;
11921;SDS011;6021;51.182;3.160;2023-04-22T10:06:04;59.27;;;44.27;;
11921;SDS011;6021;51.182;3.160;2023-04-22T10:08:33;50.50;;;39.87;;
11921;SDS011;6021;51.182;3.160;2023-04-22T10:11:04;49.17;;;39.00;;
11921;SDS011;6021;51.182;3.160;2023-04-22T10:13:41;53.93;;;41.17;;
11921;SDS011;6021;51.182;3.160;2023-04-22T10:16:10;46.47;;;37.90;;
11921;SDS011;6021;51.182;3.160;2023-04-22T10:18:39;46.10;;;37.37;;
11921;SDS011;6021;51.182;3.160;2023-04-22T10:21:09;43.70;;;35.83;;
11921;SDS011;6021;51.182;3.160;2023-04-22T10:23:41;47.07;;;38.23;;
11921;SDS011;6021;51.182;3.160;2023-04-22T10:26:10;47.63;;;40.13;;
11921;SDS011;6021;51.182;3.160;2023-04-22T10:28:46;44.43;;;38.63;;
11921;SDS011;6021;51.182;3.160;2023-04-22T10:31:20;44.77;;;39.53;;
11921;SDS011;6021;51.182;3.160;2023-04-22T10:33:49;45.77;;;39.97;;
11921;SDS011;6021;51.182;3.160;2023-04-22T10:36:19;39.63;;;35.13;;
11921;SDS011;6021;51.182;3.160;2023-04-22T10:41:27;40.57;;;36.10;;
11921;SDS011;6021;51.182;3.160;2023-04-22T10:43:59;37.13;;;33.33;;
11921;SDS011;6021;51.182;3.160;2023-04-22T10:51:49;30.47;;;25.10;;
11921;SDS011;6021;51.182;3.160;2023-04-22T10:57:01;26.23;;;21.47;;
11921;SDS011;6021;51.182;3.160;2023-04-22T10:59:41;23.67;;;18.43;;
11921;SDS011;6021;51.182;3.160;2023-04-22T11:02:13;38.20;;;34.20;;
11921;SDS011;6021;51.182;3.160;2023-04-22T11:04:43;34.77;;;31.17;;
11921;SDS011;6021;51.182;3.160;2023-04-22T11:09:52;34.87;;;31.37;;
11921;SDS011;6021;51.182;3.160;2023-04-22T11:15:15;33.53;;;30.03;;
11921;SDS011;6021;51.182;3.160;2023-04-22T11:17:47;30.73;;;27.63;;
11921;SDS011;6021;51.182;3.160;2023-04-22T11:20:18;30.13;;;27.17;;
11921;SDS011;6021;51.182;3.160;2023-04-22T11:22:48;32.03;;;28.93;;
11921;SDS011;6021;51.182;3.160;2023-04-22T11:25:18;28.20;;;25.40;;
11921;SDS011;6021;51.182;3.160;2023-04-22T11:27:47;26.73;;;24.03;;
11921;SDS011;6021;51.182;3.160;2023-04-22T11:30:16;24.83;;;22.40;;
11921;SDS011;6021;51.182;3.160;2023-04-22T11:32:46;22.57;;;20.33;;
11921;SDS011;6021;51.182;3.160;2023-04-22T11:35:20;31.23;;;28.03;;
11921;SDS011;6021;51.182;3.160;2023-04-22T11:37:51;30.87;;;27.77;;
11921;SDS011;6021;51.182;3.160;2023-04-22T11:40:26;27.47;;;24.97;;
11921;SDS011;6021;51.182;3.160;2023-04-22T11:43:02;27.47;;;24.90;;
11921;SDS011;6021;51.182;3.160;2023-04-22T11:45:32;30.57;;;27.53;;
11921;SDS011;6021;51.182;3.160;2023-04-22T11:48:09;30.13;;;27.10;;
11921;SDS011;6021;51.182;3.160;2023-04-22T11:50:34;27.70;;;21.87;;
11921;SDS011;6021;51.182;3.160;2023-04-22T11:53:11;26.70;;;21.77;;
11921;SDS011;6021;51.182;3.160;2023-04-22T11:55:50;27.70;;;25.00;;
11921;SDS011;6021;51.182;3.160;2023-04-22T11:58:19;26.10;;;23.50;;
11921;SDS011;6021;51.182;3.160;2023-04-22T12:00:53;19.00;;;16.77;;
11921;SDS011;6021;51.182;3.160;2023-04-22T12:03:24;18.87;;;16.10;;
11921;SDS011;6021;51.182;3.160;2023-04-22T12:08:31;23.10;;;20.70;;
11921;SDS011;6021;51.182;3.160;2023-04-22T12:11:06;21.60;;;18.37;;
11921;SDS011;6021;51.182;3.160;2023-04-22T12:16:10;24.00;;;21.50;;
11921;SDS011;6021;51.182;3.160;2023-04-22T12:21:18;19.77;;;16.97;;
11921;SDS011;6021;51.182;3.160;2023-04-22T12:23:52;21.23;;;17.90;;
11921;SDS011;6021;51.182;3.160;2023-04-22T12:26:23;26.63;;;24.03;;
11921;SDS011;6021;51.182;3.160;2023-04-22T12:28:54;26.20;;;23.47;;
11921;SDS011;6021;51.182;3.160;2023-04-22T12:31:24;24.07;;;21.67;;
11921;SDS011;6021;51.182;3.160;2023-04-22T12:33:53;27.00;;;24.20;;
11921;SDS011;6021;51.182;3.160;2023-04-22T12:36:21;26.37;;;23.60;;
11921;SDS011;6021;51.182;3.160;2023-04-22T12:38:50;21.77;;;19.57;;
11921;SDS011;6021;51.182;3.160;2023-04-22T12:41:24;22.23;;;20.13;;
11921;SDS011;6021;51.182;3.160;2023-04-22T12:43:59;22.30;;;20.10;;
11921;SDS011;6021;51.182;3.160;2023-04-22T12:46:23;26.90;;;24.20;;
11921;SDS011;6021;51.182;3.160;2023-04-22T12:48:51;23.13;;;20.87;;
11921;SDS011;6021;51.182;3.160;2023-04-22T12:51:20;20.47;;;18.50;;
11921;SDS011;6021;51.182;3.160;2023-04-22T12:53:48;23.57;;;21.27;;
11921;SDS011;6021;51.182;3.160;2023-04-22T12:56:17;22.07;;;19.97;;
11921;SDS011;6021;51.182;3.160;2023-04-22T12:58:46;21.37;;;19.27;;
11921;SDS011;6021;51.182;3.160;2023-04-22T13:01:14;22.33;;;20.13;;
11921;SDS011;6021;51.182;3.160;2023-04-22T13:03:42;22.83;;;20.63;;
11921;SDS011;6021;51.182;3.160;2023-04-22T13:06:11;23.40;;;21.07;;
11921;SDS011;6021;51.182;3.160;2023-04-22T13:08:39;21.50;;;19.40;;
11921;SDS011;6021;51.182;3.160;2023-04-22T13:11:08;24.40;;;22.00;;
11921;SDS011;6021;51.182;3.160;2023-04-22T13:13:36;21.43;;;19.33;;
11921;SDS011;6021;51.182;3.160;2023-04-22T13:16:04;22.27;;;19.97;;
11921;SDS011;6021;51.182;3.160;2023-04-22T13:18:33;23.77;;;21.47;;
11921;SDS011;6021;51.182;3.160;2023-04-22T13:21:01;22.70;;;20.60;;
11921;SDS011;6021;51.182;3.160;2023-04-22T13:23:31;23.87;;;21.60;;
11921;SDS011;6021;51.182;3.160;2023-04-22T13:26:00;23.00;;;20.80;;
11921;SDS011;6021;51.182;3.160;2023-04-22T13:28:29;20.93;;;18.93;;
11921;SDS011;6021;51.182;3.160;2023-04-22T13:30:58;19.90;;;18.10;;
11921;SDS011;6021;51.182;3.160;2023-04-22T13:33:26;18.30;;;16.67;;
11921;SDS011;6021;51.182;3.160;2023-04-22T13:35:54;24.83;;;22.43;;
11921;SDS011;6021;51.182;3.160;2023-04-22T13:38:23;22.23;;;20.13;;
11921;SDS011;6021;51.182;3.160;2023-04-22T13:40:53;20.23;;;18.13;;
11921;SDS011;6021;51.182;3.160;2023-04-22T13:43:21;16.93;;;15.00;;
11921;SDS011;6021;51.182;3.160;2023-04-22T13:45:50;18.00;;;15.83;;
11921;SDS011;6021;51.182;3.160;2023-04-22T13:48:18;16.77;;;14.97;;
11921;SDS011;6021;51.182;3.160;2023-04-22T13:50:47;19.10;;;17.07;;
11921;SDS011;6021;51.182;3.160;2023-04-22T13:53:15;22.00;;;18.87;;
11921;SDS011;6021;51.182;3.160;2023-04-22T13:55:44;20.20;;;17.73;;
11921;SDS011;6021;51.182;3.160;2023-04-22T13:58:12;19.83;;;16.60;;
11921;SDS011;6021;51.182;3.160;2023-04-22T14:00:41;18.97;;;16.50;;
11921;SDS011;6021;51.182;3.160;2023-04-22T14:03:12;20.30;;;17.37;;
11921;SDS011;6021;51.182;3.160;2023-04-22T14:05:40;19.77;;;17.40;;
11921;SDS011;6021;51.182;3.160;2023-04-22T14:08:09;16.67;;;14.87;;
11921;SDS011;6021;51.182;3.160;2023-04-22T14:10:37;20.70;;;18.20;;
11921;SDS011;6021;51.182;3.160;2023-04-22T14:13:06;21.47;;;17.87;;
11921;SDS011;6021;51.182;3.160;2023-04-22T14:15:34;20.63;;;18.43;;
11921;SDS011;6021;51.182;3.160;2023-04-22T14:18:04;20.03;;;17.83;;
11921;SDS011;6021;51.182;3.160;2023-04-22T14:20:32;18.87;;;16.87;;
11921;SDS011;6021;51.182;3.160;2023-04-22T14:23:01;19.63;;;17.13;;
11921;SDS011;6021;51.182;3.160;2023-04-22T14:25:30;18.63;;;16.63;;
11921;SDS011;6021;51.182;3.160;2023-04-22T14:27:59;18.30;;;16.43;;
11921;SDS011;6021;51.182;3.160;2023-04-22T14:30:28;17.33;;;15.27;;
11921;SDS011;6021;51.182;3.160;2023-04-22T14:32:57;17.93;;;16.10;;
11921;SDS011;6021;51.182;3.160;2023-04-22T14:35:26;18.10;;;16.17;;
11921;SDS011;6021;51.182;3.160;2023-04-22T14:37:54;17.23;;;15.33;;
11921;SDS011;6021;51.182;3.160;2023-04-22T14:40:24;16.90;;;15.10;;
11921;SDS011;6021;51.182;3.160;2023-04-22T14:42:55;18.63;;;16.30;;
11921;SDS011;6021;51.182;3.160;2023-04-22T14:45:28;17.70;;;15.63;;
11921;SDS011;6021;51.182;3.160;2023-04-22T14:47:55;16.70;;;14.93;;
11921;SDS011;6021;51.182;3.160;2023-04-22T14:50:24;16.73;;;14.80;;
11921;SDS011;6021;51.182;3.160;2023-04-22T14:52:53;16.00;;;14.40;;
11921;SDS011;6021;51.182;3.160;2023-04-22T14:55:22;15.40;;;13.63;;
11921;SDS011;6021;51.182;3.160;2023-04-22T14:57:51;17.00;;;15.20;;
11921;SDS011;6021;51.182;3.160;2023-04-22T15:00:24;15.57;;;13.97;;
11921;SDS011;6021;51.182;3.160;2023-04-22T15:02:53;14.77;;;13.27;;
11921;SDS011;6021;51.182;3.160;2023-04-22T15:05:22;14.43;;;12.93;;
11921;SDS011;6021;51.182;3.160;2023-04-22T15:07:51;14.70;;;13.20;;
11921;SDS011;6021;51.182;3.160;2023-04-22T15:10:19;13.70;;;12.30;;
11921;SDS011;6021;51.182;3.160;2023-04-22T15:12:48;14.90;;;13.27;;
11921;SDS011;6021;51.182;3.160;2023-04-22T15:15:16;14.73;;;13.13;;
11921;SDS011;6021;51.182;3.160;2023-04-22T15:17:45;14.50;;;12.20;;
11921;SDS011;6021;51.182;3.160;2023-04-22T15:20:13;15.87;;;12.00;;
11921;SDS011;6021;51.182;3.160;2023-04-22T15:22:42;12.60;;;11.40;;
11921;SDS011;6021;51.182;3.160;2023-04-22T15:25:10;12.70;;;11.40;;
11921;SDS011;6021;51.182;3.160;2023-04-22T15:27:39;11.60;;;10.50;;
11921;SDS011;6021;51.182;3.160;2023-04-22T15:30:07;11.20;;;10.00;;